Aérodrome :
LOGIN :

S'inscrire | Disclaimer

   EN    FR    IT 

 










Légende :    VFR   VFR Marginal   IFR   IFR Intensif   IFR Très Intensif
Visi : 
Plafond : 
>= 8 km
>= 3000ft
5 à 8 km
1000 à 3000 ft
1500m à 5 km
500 à 1000 ft
800 à 1500m
200 à 500 ft
< 800m
< 200 ft
Symboles :   Orages  Brouillard  Fortes neiges  Fortes précipitations  Vent > 20 kt
SIGMETs :   Divers  Orages  Givrage  Turbulence  Onde Orograph.  Cendres Volcan.







- Altitude de l'aérodrome : 56 ft
- Code IATA : ILY
- Voir les cartes d'approche


EGPI - Islay

DERNIER METAR :
  • 201450Z 23008KT 200V260 9999 SCT025 13/08 Q1001

METARs EXPIRÉS :
  • 201420Z 22010KT 200V260 9999 FEW025 SCT034 13/08 Q1002
  • 201350Z 22011KT 9999 SCT020 13/08 Q1002
  • 201320Z 22013KT 9999 FEW020 13/08 Q1002
  • 201250Z 22012KT 190V250 9999 FEW024 12/08 Q1003
  • 201220Z 22012KT 190V250 9999 SCT024 13/09 Q1003
  • 201150Z 21012KT 170V240 9999 SCT024 12/09 Q1003

TAF TAF EGPI
Valide du 20 à 15h jusqu'au 20 à 18h UTC


201356Z 2015/2018 22010KT 9999 FEW020 SCT030
TEMPO 2015/2018 15006KT
PROB30
TEMPO 2015/2018 6000 SHRA
Pas de NOTAMs connus pour ce terrain.
2 SIGMETs publiés pour la FIR Scottish (EGPX) :
 
Onde orographique forte
EGPX SIGMET 10 VALID 201300/201700 EGRR
EGPX SCOTTISH FIR SEV MTW FCST WI N5651 W00103 - N5629 W00339 - N5826 W00352 - N5845 W00106 - N5651 W00103 FL030/250 STNR WKN=
Turbulence forte
EGPX SIGMET 09 VALID 201300/201700 EGRR
EGPX SCOTTISH FIR SEV TURB FCST WI N5658 W00338 - N5733 W00516 - N5931 W00452 - N6058 W00115 - N6100 E00000 - N6000 E00000 - N5658 W00338 SFC/FL060 MOV NE 15KT WKN=



MET'MAP, la Météo Aéronautique d'un coup d'oeil ! - Copyright ORBIFLY Décembre 2007 - Disclaimer

ORBIFLY MET'MAP TEAM :

Programmation & Développement : Alexandra Zaïnal
Conception & Développement : Baudouin d'Aumeries
Co-Programmation & Développement : Marc-Olivier Méhu
Soutien technique & logistique : Manuel Goepfert

Contact : metmap@orbifly.com




SOURCES & CREDITS :

   NOAA